createdAt,value
2022-12-31T00:01:49.367Z,98626.00
2022-12-31T00:16:54.952Z,98631.00
2022-12-31T00:32:03.206Z,98656.00
2022-12-31T00:47:08.798Z,98673.00
2022-12-31T01:02:18.717Z,98692.00
2022-12-31T01:17:24.660Z,98727.00
2022-12-31T01:32:30.379Z,98738.00
2022-12-31T01:47:42.847Z,98720.00
2022-12-31T02:02:48.692Z,98700.00
2022-12-31T02:18:04.514Z,98697.00
2022-12-31T02:33:15.658Z,98693.00
2022-12-31T02:48:37.953Z,98696.00
2022-12-31T03:03:43.813Z,98694.00
2022-12-31T03:19:03.265Z,98689.00
2022-12-31T03:34:08.839Z,98702.00
2022-12-31T03:49:14.420Z,98653.00
2022-12-31T04:04:19.977Z,98659.00
2022-12-31T04:19:25.712Z,98656.00
2022-12-31T04:34:31.421Z,98675.00
2022-12-31T04:49:36.829Z,98671.00
2022-12-31T05:04:42.294Z,98703.00
2022-12-31T05:19:47.747Z,98696.00
2022-12-31T05:34:54.247Z,98685.00
2022-12-31T05:49:59.902Z,98707.00
2022-12-31T06:05:06.610Z,98705.00
2022-12-31T06:20:13.413Z,98705.00
2022-12-31T06:35:19.165Z,98704.00
2022-12-31T06:50:24.794Z,98743.00
2022-12-31T07:05:40.824Z,98743.00
2022-12-31T07:20:47.405Z,98759.00
2022-12-31T07:36:06.278Z,98802.00
2022-12-31T07:51:13.633Z,98796.00
2022-12-31T08:06:26.246Z,98833.00
2022-12-31T08:21:44.715Z,98823.00
2022-12-31T08:36:58.144Z,98822.00
2022-12-31T08:52:05.107Z,98861.00
2022-12-31T09:07:12.112Z,98897.00
2022-12-31T09:22:19.030Z,98877.00
2022-12-31T09:37:39.275Z,98893.00
2022-12-31T09:53:02.971Z,98900.00
2022-12-31T10:08:20.567Z,98896.00
2022-12-31T10:23:57.050Z,98905.00
2022-12-31T10:39:18.972Z,98878.00
2022-12-31T10:55:14.607Z,98874.00
2022-12-31T11:11:14.619Z,98873.00
2022-12-31T11:26:39.543Z,98894.00
2022-12-31T11:41:52.024Z,98861.00
2022-12-31T11:57:06.417Z,98858.00
2022-12-31T12:12:12.179Z,98890.00
2022-12-31T12:27:25.636Z,98903.00
2022-12-31T12:42:31.803Z,98932.00
2022-12-31T12:57:50.165Z,98920.00
2022-12-31T13:13:25.402Z,98927.00
2022-12-31T13:28:34.908Z,98946.00
2022-12-31T13:43:51.037Z,98968.00
2022-12-31T13:59:03.912Z,98943.00
2022-12-31T14:14:24.945Z,98968.00
2022-12-31T14:29:35.555Z,98996.00
2022-12-31T16:08:56.614Z,98998.00
2022-12-31T16:24:04.805Z,99004.00
2022-12-31T16:39:27.060Z,99031.00
2022-12-31T16:54:37.849Z,99036.00
2022-12-31T17:09:43.500Z,99009.00
2022-12-31T17:24:51.498Z,99013.00
2022-12-31T17:55:28.050Z,99015.00
2022-12-31T18:10:38.451Z,99034.00
2022-12-31T18:40:58.110Z,99023.00
2022-12-31T18:56:03.596Z,99059.00
2022-12-31T19:11:14.106Z,99041.00
2022-12-31T19:26:22.138Z,99056.00
2022-12-31T19:41:27.787Z,99056.00
2022-12-31T19:56:33.293Z,99055.00
2022-12-31T20:11:38.834Z,99070.00
2022-12-31T20:26:44.304Z,99064.00
2022-12-31T20:41:49.873Z,99063.00
2022-12-31T20:56:55.472Z,99063.00
2022-12-31T21:12:18.922Z,99063.00
2022-12-31T21:27:29.758Z,99090.00
2022-12-31T21:42:35.370Z,99064.00
2022-12-31T21:58:15.499Z,99082.00
2022-12-31T22:13:07.109Z,99093.00
2022-12-31T22:28:37.547Z,99114.00
2022-12-31T22:47:25.546Z,99157.00
2022-12-31T22:52:29.631Z,99162.00
2022-12-31T22:57:33.684Z,99156.00
2022-12-31T23:02:42.034Z,99172.00
2022-12-31T23:07:46.524Z,99172.00
2022-12-31T23:12:50.500Z,99169.00
2022-12-31T23:18:13.442Z,99169.00
2022-12-31T23:23:18.506Z,99172.00
2022-12-31T23:28:25.367Z,99176.00
2022-12-31T23:33:30.963Z,99184.00
2022-12-31T23:38:35.155Z,99185.00
2022-12-31T23:43:40.452Z,99199.00
2022-12-31T23:48:45.914Z,99194.00
2022-12-31T23:53:51.537Z,99201.00
2022-12-31T23:58:56.341Z,99193.00
